Time;durP1;ratioP1;P1;durP2;ratioP2;P2;SDS_P1;SDS_P2;PMS_P1;PMS_P2;Temp;Humidity;BMP_temperature;BMP_pressure;BME280_temperature;BME280_humidity;BME280_pressure;Samples;Min_cycle;Max_cycle;Signal;HPM_P1;HPM_P2
2023/03/23 00:01:19;;;;;;;2.70;2.20;;;13.20;55.30;13.30;95961.00;;;;5072241;28;20226;-78
2023/03/23 00:03:48;;;;;;;2.77;2.47;;;13.20;55.40;13.30;95958.00;;;;5066449;28;20223;-78
2023/03/23 00:06:17;;;;;;;5.93;2.53;;;13.20;55.40;13.30;95965.00;;;;5060552;28;20582;-79
2023/03/23 00:08:46;;;;;;;2.67;2.37;;;13.20;55.50;13.30;95959.00;;;;5064530;28;20665;-79
2023/03/23 00:11:14;;;;;;;2.80;2.47;;;13.20;55.60;13.30;95961.00;;;;5056416;28;20307;-79
2023/03/23 00:13:43;;;;;;;3.37;3.07;;;13.20;55.80;13.30;95963.00;;;;5045359;28;20254;-79
2023/03/23 00:16:17;;;;;;;2.63;2.30;;;13.20;55.90;13.30;95964.00;;;;5068271;28;20656;-79
2023/03/23 00:18:46;;;;;;;2.60;2.40;;;13.20;55.90;13.30;95962.00;;;;5066555;28;20196;-80
2023/03/23 00:21:13;;;;;;;2.60;2.20;;;13.20;55.90;13.30;95963.00;;;;5055048;28;20295;-80
2023/03/23 00:23:44;;;;;;;2.80;2.40;;;13.20;55.90;13.30;95962.00;;;;5068813;28;20227;-79
2023/03/23 00:26:13;;;;;;;3.30;2.20;;;13.20;56.00;13.30;95955.00;;;;5071620;28;20188;-78
2023/03/23 00:28:40;;;;;;;3.37;2.27;;;13.10;55.90;13.30;95951.00;;;;5063522;28;20350;-78
2023/03/23 00:31:10;;;;;;;2.90;2.60;;;13.10;55.90;13.20;95948.00;;;;5068861;28;20630;-78
2023/03/23 00:33:40;;;;;;;3.73;2.23;;;13.10;56.00;13.20;95949.00;;;;5058548;28;20203;-79
2023/03/23 00:36:10;;;;;;;3.10;2.30;;;13.10;56.00;13.20;95952.00;;;;5069852;28;20200;-80
2023/03/23 00:38:39;;;;;;;3.50;2.60;;;13.10;56.00;13.20;95957.00;;;;5072396;28;20287;-79
2023/03/23 00:41:11;;;;;;;2.70;2.47;;;13.10;56.00;13.20;95955.00;;;;5059594;28;20874;-79
2023/03/23 00:43:39;;;;;;;2.70;2.50;;;13.10;56.10;13.20;95951.00;;;;5071210;28;20196;-80
2023/03/23 00:46:09;;;;;;;2.40;2.20;;;13.10;56.20;13.20;95953.00;;;;5060508;28;20220;-80
2023/03/23 00:48:44;;;;;;;3.33;2.50;;;13.10;56.20;13.20;95952.00;;;;5069049;28;20196;-79
2023/03/23 00:51:12;;;;;;;2.90;2.60;;;13.10;56.40;13.20;95960.00;;;;5068365;28;20235;-80
2023/03/23 00:53:43;;;;;;;2.77;2.47;;;13.10;56.30;13.20;95948.00;;;;5050241;28;20194;-80
2023/03/23 00:56:10;;;;;;;2.70;2.47;;;13.00;56.30;13.20;95949.00;;;;5069464;28;20272;-79
2023/03/23 00:58:38;;;;;;;2.40;2.13;;;13.00;56.30;13.10;95949.00;;;;5061370;28;20196;-79
2023/03/23 01:01:06;;;;;;;2.63;2.43;;;13.00;56.40;13.10;95947.00;;;;5070022;28;20296;-79
2023/03/23 01:03:34;;;;;;;3.33;2.40;;;13.00;56.40;13.10;95953.00;;;;5069943;28;20712;-79
2023/03/23 01:06:12;;;;;;;2.40;2.20;;;13.00;56.50;13.10;95955.00;;;;5071336;28;20196;-79
2023/03/23 01:08:44;;;;;;;2.90;2.60;;;13.00;56.70;13.10;95945.00;;;;5055400;28;20212;-79
2023/03/23 01:11:14;;;;;;;2.73;2.50;;;13.00;56.60;13.10;95947.00;;;;5050665;28;20222;-78
2023/03/23 01:13:42;;;;;;;2.40;2.20;;;13.00;56.60;13.10;95943.00;;;;5065751;28;20201;-79
2023/03/23 01:16:11;;;;;;;2.83;2.53;;;13.00;56.70;13.10;95943.00;;;;5061939;28;20192;-78
2023/03/23 01:18:40;;;;;;;2.80;2.17;;;13.00;56.70;13.10;95946.00;;;;5060438;28;20283;-79
2023/03/23 01:21:14;;;;;;;2.63;2.20;;;13.00;56.90;13.10;95947.00;;;;5072565;28;20241;-79
2023/03/23 01:23:43;;;;;;;2.57;2.20;;;13.00;57.00;13.10;95946.00;;;;5072305;28;20188;-80
2023/03/23 01:26:13;;;;;;;2.20;2.00;;;13.00;56.90;13.10;95942.00;;;;5069822;28;20278;-79
2023/03/23 01:28:41;;;;;;;3.13;2.20;;;12.90;56.80;13.00;95944.00;;;;5060152;28;20739;-79
2023/03/23 01:31:12;;;;;;;1.87;1.77;;;12.90;56.80;13.00;95936.00;;;;5063386;28;20219;-78
2023/03/23 01:33:41;;;;;;;3.10;2.50;;;12.90;56.80;13.00;95932.00;;;;5067702;28;20195;-78
2023/03/23 01:36:14;;;;;;;2.40;2.17;;;12.90;56.90;13.00;95931.00;;;;5060125;28;20284;-79
2023/03/23 01:38:43;;;;;;;2.17;2.00;;;12.90;57.00;13.00;95924.00;;;;5064218;28;20218;-79
2023/03/23 01:41:11;;;;;;;1.97;1.80;;;12.90;56.90;13.00;95927.00;;;;5063581;28;20649;-79
2023/03/23 01:43:57;;;;;;;2.60;1.73;;;12.90;56.90;13.00;95928.00;;;;5075973;28;20282;-79
2023/03/23 01:46:26;;;;;;;2.03;1.83;;;12.90;56.90;12.90;95930.00;;;;5075008;28;20265;-79
2023/03/23 01:48:57;;;;;;;2.37;1.90;;;12.90;56.80;12.90;95923.00;;;;5075396;28;20311;-79
2023/03/23 01:51:29;;;;;;;2.20;1.97;;;12.80;56.80;12.90;95923.00;;;;5071862;28;20300;-79
2023/03/23 01:54:03;;;;;;;2.40;1.83;;;12.80;56.90;12.90;95920.00;;;;5055473;28;20223;-79
2023/03/23 01:56:40;;;;;;;2.33;2.10;;;12.80;56.90;12.80;95919.00;;;;5065536;28;20243;-79
2023/03/23 01:59:10;;;;;;;2.00;1.73;;;12.80;57.00;12.90;95923.00;;;;5072173;28;20204;-79
2023/03/23 02:01:42;;;;;;;2.57;1.97;;;12.80;57.00;12.90;95920.00;;;;5058696;28;20578;-79
2023/03/23 02:04:10;;;;;;;1.63;1.53;;;12.80;57.10;12.80;95920.00;;;;5061531;28;20287;-80
2023/03/23 02:06:39;;;;;;;2.73;2.27;;;12.80;57.10;12.80;95916.00;;;;5059329;28;20740;-78
2023/03/23 02:09:07;;;;;;;1.93;1.73;;;12.80;57.20;12.80;95922.00;;;;5075073;28;20212;-77
2023/03/23 02:11:35;;;;;;;5.07;2.10;;;12.70;57.20;12.90;95925.00;;;;5066880;28;20231;-79
2023/03/23 02:14:04;;;;;;;2.53;1.70;;;12.70;57.30;12.90;95916.00;;;;5074574;28;20199;-79
2023/03/23 02:16:43;;;;;;;2.30;1.87;;;12.70;57.40;12.90;95922.00;;;;5075681;28;20294;-79
2023/03/23 02:19:49;;;;;;;1.97;1.70;;;12.80;57.60;12.90;95909.00;;;;5071253;28;20224;-78
2023/03/23 02:23:04;;;;;;;2.10;2.00;;;12.80;57.80;12.90;95900.00;;;;5070289;28;20540;-79
2023/03/23 02:26:21;;;;;;;1.80;1.70;;;12.80;57.70;12.90;95911.00;;;;5058391;28;20192;-78
2023/03/23 02:29:34;;;;;;;2.53;1.57;;;12.80;58.10;12.90;95905.00;;;;5073790;28;20227;-79
2023/03/23 02:32:17;;;;;;;2.50;1.73;;;12.80;57.60;12.90;95910.00;;;;5065589;28;20302;-78
2023/03/23 02:34:51;;;;;;;2.03;1.73;;;12.80;57.40;12.90;95914.00;;;;5075714;28;20295;-80
2023/03/23 02:37:26;;;;;;;1.73;1.63;;;12.80;57.40;12.90;95912.00;;;;5061180;28;20188;-78
2023/03/23 02:40:02;;;;;;;2.53;1.80;;;12.80;57.50;13.00;95901.00;;;;5074009;28;20269;-79
2023/03/23 02:42:34;;;;;;;1.80;1.70;;;12.80;57.50;13.00;95900.00;;;;5043692;28;20199;-79
2023/03/23 02:45:06;;;;;;;2.23;1.97;;;12.80;57.50;13.00;95901.00;;;;5059973;28;20275;-80
2023/03/23 02:47:39;;;;;;;1.87;1.77;;;12.80;57.50;13.00;95903.00;;;;5065639;28;20645;-79
2023/03/23 02:50:15;;;;;;;1.90;1.73;;;12.80;57.50;13.00;95905.00;;;;5066256;28;20281;-79
2023/03/23 02:52:46;;;;;;;1.70;1.60;;;12.80;57.50;13.00;95908.00;;;;5082395;28;20226;-79
2023/03/23 02:55:15;;;;;;;3.53;1.60;;;12.80;57.40;13.00;95912.00;;;;5080489;28;20721;-80
2023/03/23 02:57:44;;;;;;;1.90;1.80;;;12.80;57.40;13.00;95916.00;;;;5075156;28;20200;-79
2023/03/23 03:00:18;;;;;;;2.60;1.80;;;12.80;57.50;13.00;95911.00;;;;5066905;28;20216;-79
2023/03/23 03:02:52;;;;;;;1.73;1.63;;;12.80;57.50;13.00;95904.00;;;;5075611;28;20232;-80
2023/03/23 03:05:36;;;;;;;2.00;1.77;;;12.80;57.50;13.00;95904.00;;;;5075614;28;20606;-80
2023/03/23 03:08:17;;;;;;;2.70;1.83;;;12.80;57.60;13.00;95902.00;;;;5073037;28;20196;-79
2023/03/23 03:10:55;;;;;;;1.50;1.40;;;12.80;57.60;12.90;95899.00;;;;5074092;28;20216;-79
2023/03/23 03:13:35;;;;;;;1.87;1.73;;;12.80;57.60;12.90;95894.00;;;;5064034;28;20201;-79
2023/03/23 03:16:11;;;;;;;2.27;1.80;;;12.80;57.60;12.90;95897.00;;;;5060097;28;20199;-79
2023/03/23 03:18:45;;;;;;;3.00;1.87;;;12.80;57.70;12.90;95900.00;;;;5073027;28;20203;-79
2023/03/23 03:21:25;;;;;;;2.07;1.87;;;12.80;57.80;12.90;95898.00;;;;5074015;28;20183;-79
2023/03/23 03:23:58;;;;;;;1.90;1.80;;;12.80;57.90;12.90;95891.00;;;;5067580;28;20551;-80
2023/03/23 03:26:28;;;;;;;3.83;1.93;;;12.80;57.90;12.90;95897.00;;;;5062397;28;20586;-79
2023/03/23 03:28:56;;;;;;;2.40;1.80;;;12.70;57.80;12.90;95900.00;;;;5072368;28;20216;-79
2023/03/23 03:31:30;;;;;;;1.70;1.60;;;12.80;57.90;12.80;95885.00;;;;5063185;28;20220;-78
2023/03/23 03:34:00;;;;;;;2.60;1.80;;;12.70;57.80;12.80;95885.00;;;;5064319;28;20235;-79
2023/03/23 03:36:34;;;;;;;3.73;2.17;;;12.70;57.80;12.80;95887.00;;;;5070538;28;20254;-79
2023/03/23 03:39:07;;;;;;;2.63;1.83;;;12.70;58.00;12.80;95894.00;;;;5073319;28;20298;-79
2023/03/23 03:41:35;;;;;;;2.23;1.90;;;12.70;58.10;12.90;95897.00;;;;5062234;28;20562;-79
2023/03/23 03:44:04;;;;;;;2.20;2.00;;;12.70;58.20;12.90;95899.00;;;;5057343;28;20748;-80
2023/03/23 03:46:31;;;;;;;1.83;1.73;;;12.70;58.30;12.90;95906.00;;;;5063681;28;20301;-79
2023/03/23 03:48:59;;;;;;;2.37;1.97;;;12.70;58.30;12.90;95915.00;;;;5073920;28;20676;-79
2023/03/23 03:51:30;;;;;;;2.07;1.97;;;12.70;58.20;12.90;95908.00;;;;5073026;28;20220;-78
2023/03/23 03:53:58;;;;;;;2.93;1.80;;;12.80;58.30;12.90;95899.00;;;;5071013;28;20291;-79
2023/03/23 03:56:26;;;;;;;1.73;1.63;;;12.80;58.30;12.90;95897.00;;;;5074178;28;20206;-78
2023/03/23 03:58:55;;;;;;;1.90;1.70;;;12.80;58.40;13.00;95908.00;;;;5072158;28;20707;-78
2023/03/23 04:01:24;;;;;;;1.77;1.67;;;12.80;58.50;13.00;95908.00;;;;5067537;28;20633;-80
2023/03/23 04:03:52;;;;;;;1.97;1.80;;;12.80;58.50;13.00;95908.00;;;;5057438;28;20254;-80
2023/03/23 04:06:20;;;;;;;2.90;1.83;;;12.80;58.50;13.00;95928.00;;;;5071674;28;20207;-79
2023/03/23 04:08:49;;;;;;;2.13;1.90;;;12.80;58.40;13.00;95933.00;;;;5072649;28;20303;-79
2023/03/23 04:11:16;;;;;;;1.83;1.73;;;12.80;58.50;13.00;95925.00;;;;5073123;28;20285;-79
2023/03/23 04:13:44;;;;;;;1.93;1.83;;;12.80;58.50;13.00;95923.00;;;;5070144;28;20205;-78
2023/03/23 04:16:11;;;;;;;1.97;1.77;;;12.80;58.60;13.00;95924.00;;;;5049898;28;20249;-80
2023/03/23 04:18:42;;;;;;;1.93;1.70;;;12.90;58.70;13.00;95929.00;;;;5071547;28;20271;-79
2023/03/23 04:21:10;;;;;;;1.70;1.60;;;12.80;58.60;13.10;95933.00;;;;5073122;28;20194;-79
2023/03/23 04:23:39;;;;;;;2.00;1.90;;;12.90;58.80;13.10;95940.00;;;;5067129;28;20195;-79
2023/03/23 04:26:08;;;;;;;2.87;1.87;;;12.90;58.90;13.20;95940.00;;;;5071737;28;20203;-79
2023/03/23 04:28:35;;;;;;;1.80;1.70;;;13.00;58.80;13.20;95944.00;;;;5073642;28;20194;-78
2023/03/23 04:31:03;;;;;;;2.03;1.93;;;13.00;58.70;13.20;95937.00;;;;5073606;28;20286;-80
2023/03/23 04:33:31;;;;;;;2.27;1.80;;;13.00;58.80;13.20;95941.00;;;;5054961;28;20310;-79
2023/03/23 04:36:02;;;;;;;2.57;1.87;;;13.00;58.70;13.30;95941.00;;;;5072102;28;20209;-79
2023/03/23 04:38:32;;;;;;;1.77;1.67;;;13.00;58.70;13.30;95934.00;;;;5066488;28;20254;-79
2023/03/23 04:41:01;;;;;;;1.80;1.50;;;13.10;58.60;13.30;95933.00;;;;5066228;28;20993;-78
2023/03/23 04:43:32;;;;;;;1.60;1.50;;;13.10;58.60;13.30;95922.00;;;;5068558;28;20271;-78
2023/03/23 04:46:02;;;;;;;1.90;1.70;;;13.10;58.60;13.30;95922.00;;;;5052259;28;20192;-78
2023/03/23 04:48:33;;;;;;;1.80;1.70;;;13.10;58.60;13.30;95927.00;;;;5061808;28;20200;-79
2023/03/23 04:51:03;;;;;;;1.70;1.60;;;13.10;58.60;13.30;95939.00;;;;5073987;28;20262;-78
2023/03/23 04:53:31;;;;;;;1.80;1.70;;;13.20;58.70;13.40;95941.00;;;;5061028;28;20204;-78
2023/03/23 04:56:00;;;;;;;1.60;1.50;;;13.20;58.70;13.40;95955.00;;;;5061224;28;20258;-79
2023/03/23 04:58:33;;;;;;;1.77;1.67;;;13.20;58.80;13.40;95949.00;;;;5068929;28;20389;-78
2023/03/23 05:01:00;;;;;;;1.97;1.80;;;13.20;58.80;13.40;95949.00;;;;5071914;28;20180;-79
2023/03/23 05:03:28;;;;;;;2.17;1.73;;;13.20;58.70;13.40;95935.00;;;;5057021;28;20411;-79
2023/03/23 05:05:56;;;;;;;3.10;2.30;;;13.20;58.70;13.50;95933.00;;;;5054370;28;20231;-79
2023/03/23 05:08:28;;;;;;;3.07;2.50;;;13.30;58.70;13.50;95933.00;;;;5063414;28;20200;-79
2023/03/23 05:10:58;;;;;;;2.57;2.37;;;13.30;58.60;13.50;95935.00;;;;5071346;28;20192;-77
2023/03/23 05:13:25;;;;;;;2.77;2.27;;;13.30;59.20;13.60;95947.00;;;;5071616;28;20314;-80
2023/03/23 05:15:54;;;;;;;2.47;1.87;;;13.40;58.80;13.60;95940.00;;;;5072059;28;20743;-79
2023/03/23 05:18:22;;;;;;;4.13;2.17;;;13.40;58.80;13.60;95939.00;;;;5060261;28;20193;-78
2023/03/23 05:20:52;;;;;;;3.00;2.10;;;13.40;58.80;13.70;95943.00;;;;5057506;28;20765;-79
2023/03/23 05:23:24;;;;;;;3.30;2.33;;;13.40;58.70;13.70;95942.00;;;;5075160;28;20214;-78
2023/03/23 05:25:55;;;;;;;2.00;1.90;;;13.40;58.70;13.70;95956.00;;;;5067298;28;20200;-79
2023/03/23 05:28:22;;;;;;;2.17;1.73;;;13.50;58.80;13.70;95952.00;;;;5080765;28;20279;-79
2023/03/23 05:30:50;;;;;;;2.23;1.97;;;13.50;58.80;13.70;95952.00;;;;5080554;28;20303;-79
2023/03/23 05:33:19;;;;;;;2.03;1.83;;;13.50;58.90;13.70;95953.00;;;;5064341;28;20307;-79
2023/03/23 05:35:48;;;;;;;3.20;1.90;;;13.50;58.80;13.70;95958.00;;;;5073799;28;20287;-78
2023/03/23 05:38:16;;;;;;;2.10;1.80;;;13.50;58.80;13.80;95959.00;;;;5070984;28;20207;-80
2023/03/23 05:40:45;;;;;;;2.03;1.70;;;13.60;58.90;13.80;95963.00;;;;5073903;28;20218;-81
2023/03/23 05:43:12;;;;;;;3.00;1.93;;;13.60;59.00;13.90;95961.00;;;;5076573;28;20200;-80
2023/03/23 05:45:39;;;;;;;2.07;1.87;;;13.60;59.00;13.90;95952.00;;;;5065242;28;20783;-82
2023/03/23 05:48:09;;;;;;;2.27;1.83;;;13.60;59.10;14.00;95932.00;;;;5073192;28;20279;-81
2023/03/23 05:50:38;;;;;;;1.90;1.80;;;13.70;59.10;14.10;95923.00;;;;5076727;28;20212;-81
2023/03/23 05:53:05;;;;;;;1.50;1.30;;;13.70;58.90;14.10;95926.00;;;;5072338;28;20235;-82
2023/03/23 05:55:33;;;;;;;1.50;1.40;;;13.70;59.30;14.10;95928.00;;;;5064232;28;20214;-80
2023/03/23 05:58:00;;;;;;;1.97;1.50;;;13.80;58.60;14.10;95917.00;;;;5072705;28;20197;-82
2023/03/23 06:00:30;;;;;;;3.23;2.00;;;13.80;58.60;14.10;95919.00;;;;5058142;28;20307;-81
2023/03/23 06:02:58;;;;;;;1.70;1.53;;;13.80;58.60;14.10;95914.00;;;;5067866;28;20227;-81
2023/03/23 06:05:26;;;;;;;2.07;1.63;;;13.90;58.60;14.20;95916.00;;;;5059549;28;20211;-81
2023/03/23 06:07:57;;;;;;;1.60;1.50;;;13.90;58.60;14.20;95911.00;;;;5057866;28;20581;-81
2023/03/23 06:10:24;;;;;;;3.47;1.60;;;13.90;58.70;14.30;95897.00;;;;5062469;28;20299;-82
2023/03/23 06:12:52;;;;;;;3.07;1.70;;;14.00;58.80;14.30;95903.00;;;;5060952;28;20221;-80
2023/03/23 06:15:19;;;;;;;2.00;1.80;;;14.10;59.00;14.40;95905.00;;;;5067877;28;20197;-79
2023/03/23 06:17:47;;;;;;;1.60;1.20;;;14.10;59.00;14.50;95899.00;;;;5076854;28;20207;-80
2023/03/23 06:20:14;;;;;;;3.07;2.10;;;14.10;59.00;14.50;95892.00;;;;5078239;28;20208;-79
2023/03/23 06:22:42;;;;;;;1.67;1.43;;;14.20;59.00;14.60;95895.00;;;;5056547;28;20279;-81
2023/03/23 06:25:12;;;;;;;3.20;1.90;;;14.20;59.50;14.60;95896.00;;;;5068911;28;20207;-80
2023/03/23 06:27:40;;;;;;;1.93;1.80;;;14.30;59.20;14.70;95892.00;;;;5058969;28;20208;-80
2023/03/23 06:30:09;;;;;;;1.80;1.67;;;14.30;59.10;14.70;95895.00;;;;5076072;28;20308;-81
2023/03/23 06:32:39;;;;;;;1.40;1.30;;;14.30;59.10;14.80;95890.00;;;;5065160;28;20223;-80
2023/03/23 06:35:09;;;;;;;1.60;1.50;;;14.40;59.20;14.80;95888.00;;;;5081402;28;20189;-80
2023/03/23 06:37:37;;;;;;;2.90;1.90;;;14.40;59.20;14.90;95890.00;;;;5075375;28;20196;-80
2023/03/23 06:40:07;;;;;;;2.43;1.90;;;14.50;59.10;14.90;95888.00;;;;5074244;28;20220;-80
2023/03/23 06:42:36;;;;;;;3.73;1.80;;;14.50;59.10;15.00;95897.00;;;;5071173;28;20206;-81
2023/03/23 06:45:06;;;;;;;2.10;1.90;;;14.50;59.10;15.00;95895.00;;;;5076191;28;20730;-84
2023/03/23 06:47:33;;;;;;;1.67;1.53;;;14.60;59.10;15.10;95892.00;;;;5053020;28;20231;-80
2023/03/23 06:50:01;;;;;;;3.43;1.70;;;14.70;58.90;15.10;95904.00;;;;5070064;28;20213;-80
2023/03/23 06:52:28;;;;;;;1.97;1.70;;;14.70;58.80;15.10;95914.00;;;;5076858;28;20318;-82
2023/03/23 06:54:56;;;;;;;2.33;1.40;;;14.80;59.00;15.20;95907.00;;;;5075332;28;20215;-81
2023/03/23 06:57:25;;;;;;;1.70;1.50;;;14.80;59.00;15.20;95916.00;;;;5077028;28;20248;-81
2023/03/23 06:59:53;;;;;;;1.40;1.30;;;14.80;59.00;15.30;95935.00;;;;5083119;28;20837;-80
2023/03/23 07:02:21;;;;;;;2.23;1.43;;;14.90;59.00;15.40;95921.00;;;;5068671;28;20899;-80
2023/03/23 07:04:48;;;;;;;1.67;1.53;;;14.90;58.80;15.50;95927.00;;;;5093366;28;20471;-80
2023/03/23 07:07:18;;;;;;;2.17;1.70;;;15.00;58.80;15.60;95939.00;;;;5056067;28;20292;-80
2023/03/23 07:09:45;;;;;;;2.20;1.63;;;15.10;58.80;15.60;95942.00;;;;5089807;28;20227;-81
2023/03/23 07:12:14;;;;;;;1.87;1.77;;;15.20;58.80;15.70;95933.00;;;;5094951;28;20184;-82
2023/03/23 07:14:41;;;;;;;5.03;1.60;;;15.30;58.80;15.80;95938.00;;;;5084241;28;20176;-81
2023/03/23 07:17:11;;;;;;;1.93;1.27;;;15.30;58.80;15.90;95942.00;;;;5096438;28;20191;-80
2023/03/23 07:19:39;;;;;;;1.30;1.20;;;15.40;58.80;16.00;95931.00;;;;5093679;28;20209;-81
2023/03/23 07:22:07;;;;;;;2.03;1.67;;;15.50;58.70;16.20;95940.00;;;;5088885;28;20734;-80
2023/03/23 07:24:35;;;;;;;1.87;1.60;;;15.60;58.50;16.30;95934.00;;;;5071828;28;20200;-80
2023/03/23 07:27:03;;;;;;;2.63;1.33;;;15.70;58.60;16.40;95926.00;;;;5080352;28;20207;-81
2023/03/23 07:29:34;;;;;;;1.23;1.20;;;15.80;58.50;16.50;95925.00;;;;5070594;28;20227;-80
2023/03/23 07:32:02;;;;;;;1.40;1.30;;;15.90;58.30;16.60;95939.00;;;;5070440;28;20195;-80
2023/03/23 07:34:31;;;;;;;1.50;1.40;;;16.00;58.40;16.70;95939.00;;;;5068600;28;20216;-81
2023/03/23 07:37:00;;;;;;;2.40;1.40;;;16.10;58.50;16.80;95933.00;;;;5072362;28;20192;-80
2023/03/23 07:39:27;;;;;;;1.07;1.00;;;16.20;58.50;17.00;95932.00;;;;5072855;28;20224;-81
2023/03/23 07:41:55;;;;;;;1.83;1.20;;;16.30;58.30;17.10;95944.00;;;;5074035;28;20303;-81
2023/03/23 07:44:24;;;;;;;1.93;1.30;;;16.50;58.30;17.30;95938.00;;;;5078676;28;20261;-81
2023/03/23 07:46:52;;;;;;;1.30;1.20;;;16.60;58.50;17.40;95942.00;;;;5068504;28;20631;-81
2023/03/23 07:49:20;;;;;;;1.00;1.00;;;16.70;58.60;17.60;95953.00;;;;5074932;28;20208;-80
2023/03/23 07:51:49;;;;;;;3.50;0.97;;;16.80;58.50;17.70;95949.00;;;;5069662;28;20279;-81
2023/03/23 07:54:16;;;;;;;2.17;1.70;;;17.00;58.30;17.90;95940.00;;;;5061485;28;20240;-82
2023/03/23 07:56:45;;;;;;;1.30;1.20;;;17.10;57.90;18.00;95935.00;;;;5064181;28;20227;-80
2023/03/23 07:59:12;;;;;;;1.50;1.40;;;17.20;57.70;18.10;95936.00;;;;5076032;28;20307;-80
2023/03/23 08:01:40;;;;;;;1.50;1.40;;;17.30;57.50;18.20;95931.00;;;;5082636;28;20226;-81
2023/03/23 08:04:08;;;;;;;1.73;1.17;;;17.50;57.20;18.30;95940.00;;;;5089663;28;20215;-82
2023/03/23 08:06:39;;;;;;;1.23;1.20;;;17.60;57.20;18.40;95944.00;;;;5100651;28;20192;-80
2023/03/23 08:09:10;;;;;;;1.40;1.30;;;17.70;57.10;18.50;95935.00;;;;5092454;28;20585;-82
2023/03/23 08:11:38;;;;;;;2.30;1.20;;;17.80;56.90;18.60;95939.00;;;;5074356;28;20203;-81
2023/03/23 08:14:06;;;;;;;2.27;1.20;;;17.90;56.70;18.60;95933.00;;;;5076694;28;20223;-80
2023/03/23 08:16:34;;;;;;;3.20;1.60;;;18.00;56.70;18.70;95938.00;;;;5044716;28;20275;-80
2023/03/23 08:19:02;;;;;;;1.57;1.47;;;18.10;56.60;18.90;95941.00;;;;5057856;28;20235;-80
2023/03/23 08:21:29;;;;;;;1.60;1.50;;;18.20;56.50;19.00;95949.00;;;;5071451;28;20228;-81
2023/03/23 08:23:56;;;;;;;2.03;1.50;;;18.30;56.60;19.10;95946.00;;;;5067107;28;20585;-81
2023/03/23 08:26:26;;;;;;;3.60;1.60;;;18.40;56.90;19.20;95953.00;;;;5068934;28;20283;-80
2023/03/23 08:28:54;;;;;;;1.70;1.30;;;18.50;56.50;19.30;95948.00;;;;5074348;28;20247;-81
2023/03/23 08:31:23;;;;;;;1.73;1.63;;;18.60;56.10;19.40;95960.00;;;;5073823;28;20203;-80
2023/03/23 08:33:51;;;;;;;1.67;1.30;;;18.70;56.00;19.50;95952.00;;;;5068069;28;20227;-81
2023/03/23 08:36:19;;;;;;;1.60;1.10;;;18.80;55.90;19.60;95951.00;;;;5074167;28;20200;-80
2023/03/23 08:38:47;;;;;;;2.50;1.30;;;18.90;55.70;19.70;95954.00;;;;5068472;28;20200;-82
2023/03/23 08:41:16;;;;;;;1.67;1.20;;;18.90;55.30;19.80;95959.00;;;;5057744;28;20204;-81
2023/03/23 08:43:45;;;;;;;1.37;1.27;;;19.00;55.00;19.90;95966.00;;;;5070443;28;20215;-80
2023/03/23 08:46:12;;;;;;;1.27;1.13;;;19.10;54.80;20.00;95957.00;;;;5073641;28;20235;-80
2023/03/23 08:48:43;;;;;;;1.60;1.50;;;19.20;54.90;20.10;95960.00;;;;5071939;28;20787;-80
2023/03/23 08:51:10;;;;;;;1.60;1.50;;;19.40;54.80;20.30;95961.00;;;;5076751;28;20264;-81
2023/03/23 08:53:38;;;;;;;1.50;1.40;;;19.50;54.40;20.40;95953.00;;;;5076651;28;20302;-81
2023/03/23 08:56:08;;;;;;;2.20;1.40;;;19.50;54.30;20.40;95960.00;;;;5055588;28;20202;-81
2023/03/23 08:58:35;;;;;;;4.40;1.50;;;19.70;54.40;20.60;95972.00;;;;5076246;28;20223;-82
2023/03/23 09:01:06;;;;;;;1.73;1.40;;;19.70;54.00;20.60;95977.00;;;;5077791;28;20286;-81
2023/03/23 09:03:34;;;;;;;3.20;1.33;;;19.90;53.70;20.80;95974.00;;;;5077498;28;20238;-81
2023/03/23 09:06:03;;;;;;;1.90;1.30;;;19.90;53.50;20.90;95966.00;;;;5078034;28;20222;-81
2023/03/23 09:08:31;;;;;;;1.93;1.30;;;20.10;53.60;21.00;95986.00;;;;5077174;28;20279;-80
2023/03/23 09:11:02;;;;;;;2.07;1.30;;;20.20;53.60;21.20;95988.00;;;;5079075;28;20600;-81
2023/03/23 09:13:30;;;;;;;1.80;1.40;;;20.30;53.50;21.30;95990.00;;;;5077434;28;20216;-79
2023/03/23 09:15:58;;;;;;;1.33;1.23;;;20.40;53.30;21.40;95997.00;;;;5076684;28;20233;-81
2023/03/23 09:18:27;;;;;;;1.30;1.13;;;20.50;53.00;21.60;95996.00;;;;5077971;28;20205;-82
2023/03/23 09:20:56;;;;;;;1.00;1.00;;;20.70;52.60;21.70;95998.00;;;;5076756;28;20793;-80
2023/03/23 09:23:24;;;;;;;2.23;1.43;;;20.80;52.60;21.90;95999.00;;;;5077771;28;20256;-81
2023/03/23 09:25:52;;;;;;;1.30;1.00;;;20.90;52.40;22.10;95997.00;;;;5078190;28;20200;-80
2023/03/23 09:28:20;;;;;;;1.00;1.00;;;21.10;52.10;22.30;96002.00;;;;5075668;28;20668;-83
2023/03/23 09:30:48;;;;;;;1.40;1.10;;;21.20;51.90;22.50;96005.00;;;;5079120;28;20224;-80
2023/03/23 09:33:16;;;;;;;1.23;0.90;;;21.40;51.90;22.60;96005.00;;;;5077970;28;20700;-83
2023/03/23 09:35:45;;;;;;;1.13;1.10;;;21.60;51.30;22.80;96010.00;;;;5079430;28;20699;-81
2023/03/23 09:38:13;;;;;;;0.90;0.90;;;21.70;50.80;23.00;96013.00;;;;5095853;28;20246;-82
2023/03/23 09:40:48;;;;;;;0.87;0.80;;;21.90;50.40;23.10;96011.00;;;;5079596;28;20224;-82
2023/03/23 09:43:44;;;;;;;2.90;1.00;;;22.10;49.40;23.30;96015.00;;;;5079913;28;20215;-80
2023/03/23 09:46:31;;;;;;;1.00;0.83;;;22.20;48.90;23.40;95997.00;;;;5073254;28;20615;-80
2023/03/23 09:49:04;;;;;;;1.47;0.80;;;22.40;48.70;23.50;95995.00;;;;5057546;28;20217;-81
2023/03/23 09:51:46;;;;;;;2.57;0.90;;;22.50;48.70;23.70;95996.00;;;;5075516;28;20239;-81
2023/03/23 09:54:22;;;;;;;1.13;1.00;;;22.70;48.30;23.80;95992.00;;;;5065335;28;20226;-84
2023/03/23 09:56:51;;;;;;;2.10;1.30;;;22.80;48.60;23.80;95992.00;;;;5081335;28;20202;-81
2023/03/23 09:59:29;;;;;;;0.67;0.67;;;22.90;48.20;23.80;95998.00;;;;5080214;28;20220;-82
2023/03/23 10:02:19;;;;;;;1.50;0.80;;;23.00;47.70;23.90;96017.00;;;;5076451;28;20189;-82
2023/03/23 10:04:48;;;;;;;1.87;0.80;;;23.00;47.60;23.90;96001.00;;;;5085378;28;20180;-83
2023/03/23 10:07:23;;;;;;;1.00;0.87;;;23.10;47.40;23.90;96003.00;;;;5087560;28;20287;-82
2023/03/23 10:09:54;;;;;;;1.00;0.60;;;23.10;47.00;23.80;96012.00;;;;5085388;28;20219;-84
2023/03/23 10:12:32;;;;;;;1.20;1.10;;;23.10;46.70;23.80;96003.00;;;;5087433;28;20223;-80
2023/03/23 10:15:17;;;;;;;0.90;0.90;;;23.20;46.30;23.80;95996.00;;;;5085660;28;20254;-83
2023/03/23 10:17:56;;;;;;;0.60;0.60;;;23.20;46.40;23.90;96006.00;;;;5083435;28;20218;-83
2023/03/23 10:20:36;;;;;;;1.73;1.00;;;23.20;46.30;24.00;96003.00;;;;5064815;28;20257;-82
2023/03/23 10:23:16;;;;;;;1.07;0.93;;;23.20;46.10;24.10;96007.00;;;;5059711;28;20607;-81
2023/03/23 10:25:49;;;;;;;0.70;0.70;;;23.40;46.10;24.10;96010.00;;;;5057355;28;20214;-81
2023/03/23 10:28:23;;;;;;;0.90;0.80;;;23.40;46.10;24.10;96010.00;;;;5060245;28;20185;-80
2023/03/23 10:30:57;;;;;;;0.63;0.60;;;23.50;45.90;24.20;96014.00;;;;5066426;28;20290;-82
2023/03/23 10:33:36;;;;;;;0.80;0.80;;;23.50;45.80;24.20;96010.00;;;;5068241;28;20219;-82
2023/03/23 10:36:12;;;;;;;0.90;0.80;;;23.50;45.60;24.20;96019.00;;;;5082673;28;20247;-81
2023/03/23 10:38:47;;;;;;;0.87;0.70;;;23.50;45.40;24.10;96010.00;;;;5089250;28;20208;-81
2023/03/23 10:41:18;;;;;;;0.63;0.63;;;23.50;45.20;24.10;96018.00;;;;5088133;28;20585;-80
2023/03/23 10:43:49;;;;;;;0.80;0.80;;;23.50;45.40;24.10;96011.00;;;;5087910;28;20219;-83
2023/03/23 10:46:30;;;;;;;0.77;0.77;;;23.50;45.30;24.00;96006.00;;;;5063086;28;20207;-83
2023/03/23 10:49:03;;;;;;;0.70;0.70;;;23.50;45.00;24.00;96014.00;;;;5075397;28;20217;-81
2023/03/23 10:51:36;;;;;;;0.80;0.80;;;23.40;45.00;24.00;96010.00;;;;5072495;28;20212;-82
2023/03/23 10:54:07;;;;;;;0.60;0.60;;;23.40;44.80;24.00;96007.00;;;;5076590;28;20728;-81
2023/03/23 10:56:41;;;;;;;2.30;0.80;;;23.40;44.90;24.00;96010.00;;;;5078240;28;20181;-81
2023/03/23 10:59:20;;;;;;;0.63;0.63;;;23.40;45.10;24.00;96011.00;;;;5078809;28;20572;-81
2023/03/23 11:01:51;;;;;;;0.60;0.60;;;23.40;44.80;24.00;96006.00;;;;5076507;28;20292;-81
2023/03/23 11:04:21;;;;;;;0.60;0.57;;;23.40;45.10;24.10;96018.00;;;;5077666;28;20198;-81
2023/03/23 11:06:53;;;;;;;0.53;0.53;;;23.40;45.50;24.10;96013.00;;;;5078281;28;20254;-81
2023/03/23 11:09:35;;;;;;;0.97;0.73;;;23.40;46.00;24.20;96009.00;;;;5077221;28;20222;-80
2023/03/23 11:12:02;;;;;;;1.67;0.87;;;23.50;45.30;24.30;96008.00;;;;5075706;28;20311;-81